Time;durP1;ratioP1;P1;durP2;ratioP2;P2;SDS_P1;SDS_P2;PMS_P1;PMS_P2;Temp;Humidity;BMP_temperature;BMP_pressure;BME280_temperature;BME280_humidity;BME280_pressure;Samples;Min_cycle;Max_cycle;Signal;HPM_P1;HPM_P2
2022/12/28 11:53:57;;;;;;;4.95;4.55;;;8.80;99.90;;;7.87;95.78;98156.00;5276622;27;20651;-65
2022/12/28 11:56:58;;;;;;;5.68;5.25;;;8.40;99.90;;;8.30;89.71;98127.63;5238407;28;20210;-64
2022/12/28 11:59:34;;;;;;;13.07;12.18;;;8.50;99.90;;;8.46;88.79;98130.47;5232692;28;20223;-61
2022/12/28 12:02:39;;;;;;;6.22;5.82;;;8.60;99.90;;;8.63;90.88;98133.31;5232657;28;20205;-61
2022/12/28 12:05:50;;;;;;;4.90;4.50;;;8.60;99.90;;;8.73;90.81;98128.09;5230303;28;20662;-63
2022/12/28 12:08:41;;;;;;;6.10;5.50;;;8.60;99.90;;;8.75;86.09;98118.84;5229813;28;20209;-63
2022/12/28 12:11:32;;;;;;;6.30;5.70;;;8.60;99.90;;;8.82;89.33;98115.06;5233677;28;20634;-64
2022/12/28 12:14:07;;;;;;;4.55;4.00;;;8.60;99.90;;;8.89;91.01;98110.47;5234796;28;20231;-63
2022/12/28 12:16:48;;;;;;;5.07;4.63;;;8.60;99.90;;;8.98;89.17;98106.00;5228322;28;20299;-64
2022/12/28 12:19:26;;;;;;;3.88;3.50;;;8.70;99.90;;;9.13;89.12;98098.50;5235087;28;20633;-63
2022/12/28 12:22:09;;;;;;;5.13;4.70;;;8.80;99.90;;;9.17;86.40;98099.59;5228688;28;20555;-63
2022/12/28 12:24:53;;;;;;;3.60;3.30;;;8.80;99.90;;;9.48;82.90;98089.72;5227669;28;20212;-63
2022/12/28 12:27:36;;;;;;;3.88;3.58;;;8.90;99.90;;;9.47;83.21;98091.41;5233222;28;20629;-62
2022/12/28 12:30:16;;;;;;;4.35;4.15;;;9.00;99.90;;;9.59;80.73;98085.31;5231689;28;20282;-63
2022/12/28 12:32:54;;;;;;;4.25;3.90;;;9.00;99.90;;;9.57;79.55;98089.44;5231312;28;20314;-63
2022/12/28 12:35:30;;;;;;;3.95;3.65;;;9.10;99.90;;;9.47;82.89;98087.94;5221613;28;20201;-63
2022/12/28 12:38:12;;;;;;;4.20;3.75;;;9.00;99.90;;;9.46;83.78;98087.06;5228643;28;20205;-63
2022/12/28 12:41:06;;;;;;;5.82;5.43;;;9.00;99.90;;;9.55;81.25;98078.22;5233325;28;20214;-63
2022/12/28 12:43:59;;;;;;;4.65;4.25;;;9.00;99.90;;;9.60;80.37;98075.19;5226067;28;20229;-62
2022/12/28 12:47:03;;;;;;;4.07;3.78;;;9.10;99.90;;;9.63;82.11;98082.16;5221430;28;20212;-63
2022/12/28 12:50:17;;;;;;;3.80;3.25;;;9.10;99.90;;;9.61;82.61;98069.28;5227311;28;20216;-63
2022/12/28 12:52:59;;;;;;;2.97;2.78;;;9.10;99.90;;;9.59;79.51;98072.56;5233401;28;20264;-63
2022/12/28 12:55:54;;;;;;;3.13;2.92;;;9.10;99.90;;;9.59;82.24;98062.34;5225274;28;20300;-62
2022/12/28 12:58:37;;;;;;;3.22;3.03;;;9.10;99.90;;;9.72;79.27;98057.22;5228574;28;20259;-62
2022/12/28 13:01:28;;;;;;;3.25;2.95;;;9.10;99.90;;;9.71;79.14;98058.03;5227971;28;20296;-62
2022/12/28 13:04:08;;;;;;;3.08;2.80;;;9.20;99.90;;;9.76;79.20;98046.44;5220602;28;20272;-62
2022/12/28 13:06:42;;;;;;;2.70;2.50;;;9.20;99.90;;;9.88;77.56;98048.88;5211106;28;20202;-63
2022/12/28 13:09:17;;;;;;;2.92;2.72;;;9.30;99.90;;;9.93;76.51;98043.28;5217242;28;20620;-63
2022/12/28 13:11:51;;;;;;;4.07;3.05;;;9.30;99.90;;;9.89;78.04;98036.19;5215161;28;20668;-62
2022/12/28 13:14:25;;;;;;;3.45;3.15;;;9.30;99.90;;;9.96;75.62;98034.00;5211739;28;20229;-62
2022/12/28 13:17:01;;;;;;;3.20;3.00;;;9.40;99.90;;;9.99;75.18;98035.13;5217496;28;20217;-62
2022/12/28 13:19:34;;;;;;;3.13;2.92;;;9.40;99.90;;;10.08;75.90;98029.69;5217169;28;20201;-62
2022/12/28 13:22:27;;;;;;;3.17;2.45;;;9.40;99.90;;;10.06;74.94;98021.03;5213406;28;20713;-62
2022/12/28 13:25:00;;;;;;;3.08;2.80;;;9.50;99.90;;;10.17;73.13;98017.47;5212919;28;20210;-63
2022/12/28 13:27:35;;;;;;;3.03;2.83;;;9.60;99.90;;;10.16;73.71;98020.84;5226825;28;20219;-63
2022/12/28 13:30:18;;;;;;;3.00;2.80;;;9.60;99.90;;;10.34;72.26;98016.84;5222360;28;20832;-62
2022/12/28 13:32:56;;;;;;;2.80;2.60;;;9.70;99.90;;;10.40;72.46;98021.44;5216991;28;20257;-62
2022/12/28 13:35:32;;;;;;;3.15;2.95;;;9.80;99.90;;;10.29;71.58;98018.25;5217506;28;20658;-62
2022/12/28 13:38:14;;;;;;;2.90;2.70;;;9.80;99.90;;;10.40;71.63;98023.13;5212507;28;20680;-62
2022/12/28 13:40:53;;;;;;;2.60;2.40;;;9.80;99.90;;;10.34;72.65;98014.31;5214139;28;20715;-62
2022/12/28 13:44:21;;;;;;;3.10;2.88;;;9.70;99.90;;;10.26;72.96;98023.13;5210972;28;20279;-62
2022/12/28 13:47:01;;;;;;;3.22;3.03;;;9.60;99.90;;;10.32;72.21;98008.22;5211791;28;20296;-62
2022/12/28 13:49:42;;;;;;;2.85;2.63;;;9.60;99.90;;;10.25;73.31;98011.16;5219487;28;20213;-62
2022/12/28 13:52:21;;;;;;;2.35;2.25;;;9.60;99.90;;;10.21;73.10;98014.31;5215732;28;20287;-64
2022/12/28 13:55:01;;;;;;;11.10;7.95;;;9.60;99.90;;;10.13;72.79;98010.44;5214793;28;20242;-61
2022/12/28 13:57:36;;;;;;;6.35;5.35;;;9.50;99.90;;;10.06;73.74;98005.72;5214716;28;20299;-61
2022/12/28 14:00:22;;;;;;;2.70;2.50;;;9.40;99.90;;;10.08;71.42;97997.38;5213567;28;20201;-62
2022/12/28 14:02:58;;;;;;;3.10;2.90;;;9.40;99.90;;;9.99;71.68;98001.03;5218348;28;20252;-61
2022/12/28 14:05:33;;;;;;;2.92;2.72;;;9.30;99.90;;;9.95;72.79;97993.97;5221379;28;20262;-62
2022/12/28 14:08:07;;;;;;;2.90;2.80;;;9.30;99.90;;;9.90;72.65;97997.13;5216721;28;20208;-62
2022/12/28 14:10:41;;;;;;;5.90;5.40;;;9.30;99.90;;;9.82;75.51;98003.44;5214434;28;20204;-61
2022/12/28 14:13:16;;;;;;;8.45;7.82;;;9.20;99.90;;;9.84;75.73;98001.88;5212449;28;20333;-62
2022/12/28 14:15:49;;;;;;;6.35;5.78;;;9.20;99.90;;;9.74;76.08;98004.63;5214822;28;20652;-63
2022/12/28 14:18:23;;;;;;;3.38;3.08;;;9.10;99.90;;;9.88;74.45;98003.81;5214155;28;20848;-63
2022/12/28 14:20:58;;;;;;;3.53;3.20;;;9.20;99.90;;;9.79;75.67;98005.78;5208829;28;20206;-62
2022/12/28 14:23:35;;;;;;;2.47;2.38;;;9.10;99.90;;;9.81;75.25;97996.53;5216701;28;20248;-64
2022/12/28 14:26:10;;;;;;;4.32;4.00;;;9.10;99.90;;;9.76;74.82;98000.50;5214625;28;20193;-63
2022/12/28 14:28:47;;;;;;;12.65;9.82;;;9.10;99.90;;;9.90;73.12;97996.22;5213053;28;20569;-64
2022/12/28 14:31:22;;;;;;;28.38;26.38;;;9.10;99.90;;;9.80;76.06;97989.69;5208923;28;20237;-62
2022/12/28 14:33:57;;;;;;;19.27;17.40;;;9.10;99.90;;;9.77;75.04;97981.84;5218696;28;20700;-64
2022/12/28 14:36:36;;;;;;;4.00;3.70;;;9.10;99.90;;;9.69;74.68;97985.56;5216047;28;20212;-63
2022/12/28 14:39:30;;;;;;;3.88;3.58;;;9.00;99.90;;;9.71;74.74;97984.00;5219854;28;20240;-63
2022/12/28 14:42:06;;;;;;;3.95;3.65;;;9.10;99.90;;;9.73;74.75;97987.56;5213039;28;20293;-64
2022/12/28 14:44:41;;;;;;;3.80;3.50;;;9.10;99.90;;;9.60;74.71;97987.56;5219294;28;20232;-64
2022/12/28 14:47:34;;;;;;;3.20;3.00;;;9.00;99.90;;;9.64;74.23;97986.94;5209913;28;20234;-64
2022/12/28 14:50:18;;;;;;;3.42;2.92;;;9.00;99.90;;;9.50;75.16;97975.00;5212233;28;20282;-64
2022/12/28 14:53:02;;;;;;;3.78;3.47;;;8.90;99.90;;;9.44;76.60;97978.03;5217909;28;20666;-63
2022/12/28 14:55:40;;;;;;;3.10;3.00;;;8.90;99.90;;;9.50;75.30;97972.44;5218386;28;20209;-63
2022/12/28 14:58:21;;;;;;;4.38;3.97;;;8.80;99.90;;;9.30;76.76;97960.97;5211704;28;20201;-63
2022/12/28 15:00:58;;;;;;;3.70;3.38;;;8.70;99.90;;;9.43;75.73;97956.75;5211427;28;20875;-62
2022/12/28 15:03:48;;;;;;;3.63;3.33;;;8.80;99.90;;;9.28;77.07;97950.69;5214010;28;20240;-64
2022/12/28 15:06:23;;;;;;;3.47;3.28;;;8.70;99.90;;;9.28;77.34;97945.59;5218004;28;20292;-63
2022/12/28 15:09:00;;;;;;;4.05;3.65;;;8.60;99.90;;;9.13;78.23;97947.16;5211833;28;20579;-64
2022/12/28 15:11:33;;;;;;;4.00;3.70;;;8.50;99.90;;;9.25;77.23;97942.84;5212118;28;20208;-63
2022/12/28 15:14:06;;;;;;;3.72;3.53;;;8.60;99.90;;;9.27;76.98;97945.47;5213657;28;20307;-64
2022/12/28 15:16:39;;;;;;;4.35;4.00;;;8.60;99.90;;;9.31;76.10;97948.34;5207946;28;20209;-64
2022/12/28 15:19:12;;;;;;;5.40;5.00;;;8.60;99.90;;;9.16;78.42;97949.94;5214230;28;20197;-61
2022/12/28 15:21:45;;;;;;;4.80;4.30;;;8.50;99.90;;;9.06;79.45;97947.56;5208927;28;20206;-63
2022/12/28 15:24:20;;;;;;;5.90;5.40;;;8.40;99.90;;;8.94;80.49;97943.44;5215417;28;20328;-63
2022/12/28 15:26:57;;;;;;;32.80;23.75;;;8.40;99.90;;;9.01;80.09;97945.63;5216073;28;21825;-62
2022/12/28 15:29:30;;;;;;;29.98;20.75;;;8.40;99.90;;;8.99;80.31;97949.72;5212810;28;20505;-63
2022/12/28 15:32:23;;;;;;;7.45;6.75;;;8.40;99.90;;;8.98;80.08;97947.94;5208799;28;20228;-63
2022/12/28 15:34:56;;;;;;;5.47;5.07;;;8.40;99.90;;;8.90;80.77;97944.03;5213890;28;20672;-63
2022/12/28 15:37:29;;;;;;;4.90;4.60;;;8.40;99.90;;;8.87;81.98;97946.38;5209798;28;20728;-62
2022/12/28 15:40:06;;;;;;;4.10;3.88;;;8.40;99.90;;;8.85;82.77;97947.94;5207852;28;20201;-63
2022/12/28 15:42:39;;;;;;;6.10;5.60;;;8.30;99.90;;;8.85;82.63;97947.94;5215742;28;20711;-63
2022/12/28 15:45:13;;;;;;;11.55;10.45;;;8.30;99.90;;;8.77;82.63;97952.53;5217096;28;20687;-63
2022/12/28 15:47:46;;;;;;;14.30;12.38;;;8.20;99.90;;;8.73;84.22;97948.03;5212681;28;20262;-62
2022/12/28 15:50:19;;;;;;;12.20;10.80;;;8.20;99.90;;;8.61;83.06;97946.31;5215263;28;20237;-64
2022/12/28 15:52:53;;;;;;;10.68;9.77;;;8.00;99.90;;;8.54;84.19;97940.84;5208707;28;20225;-63
2022/12/28 15:55:27;;;;;;;10.63;9.60;;;8.00;99.90;;;8.50;84.62;97946.53;5208861;28;20225;-63
2022/12/28 15:58:00;;;;;;;8.85;8.07;;;7.90;99.90;;;8.35;84.43;97937.81;5209144;28;20223;-63
2022/12/28 16:00:33;;;;;;;8.73;7.90;;;7.70;99.90;;;8.27;85.16;97937.31;5207465;28;20270;-63
2022/12/28 16:03:07;;;;;;;7.13;6.53;;;7.70;99.90;;;8.18;86.29;97944.31;5210518;28;20599;-63
2022/12/28 16:05:40;;;;;;;6.38;5.88;;;7.60;99.90;;;8.08;87.13;97945.38;5208413;28;20212;-63
2022/12/28 16:08:13;;;;;;;6.38;5.88;;;7.40;99.90;;;7.98;87.51;97942.09;5210028;28;20264;-63
2022/12/28 16:10:47;;;;;;;7.75;7.05;;;7.40;99.90;;;7.80;87.56;97947.69;5209846;28;20308;-62
2022/12/28 16:13:21;;;;;;;7.25;6.65;;;7.20;99.90;;;7.79;88.59;97942.50;5211063;28;20270;-63
2022/12/28 16:15:54;;;;;;;7.00;6.40;;;7.20;99.90;;;7.65;88.42;97942.41;5215569;28;20713;-63
2022/12/28 16:18:27;;;;;;;7.25;6.55;;;7.00;99.90;;;7.52;89.16;97942.34;5209362;28;20241;-63
2022/12/28 16:21:01;;;;;;;7.03;6.45;;;6.90;99.90;;;7.48;89.39;97937.81;5213030;28;20234;-63
2022/12/28 16:23:37;;;;;;;7.20;6.50;;;6.80;99.90;;;7.38;90.56;97933.75;5215007;28;20766;-63
2022/12/28 16:26:13;;;;;;;6.90;6.30;;;6.80;99.90;;;7.31;90.99;97935.75;5210139;28;20242;-63
2022/12/28 16:28:46;;;;;;;7.00;6.40;;;6.70;99.90;;;7.22;91.44;97929.25;5208990;28;20206;-62
2022/12/28 16:31:25;;;;;;;29.08;22.63;;;6.50;99.90;;;7.14;92.41;97922.72;5212089;28;20784;-62
2022/12/28 16:34:01;;;;;;;17.83;15.90;;;6.50;99.90;;;7.17;92.47;97919.53;5213689;28;20312;-62
2022/12/28 16:36:35;;;;;;;20.08;15.57;;;6.50;99.90;;;7.14;92.40;97921.84;5208562;28;20205;-63
2022/12/28 16:39:12;;;;;;;22.90;18.55;;;6.50;99.90;;;7.09;92.70;97928.25;5211776;28;20292;-62
2022/12/28 16:41:46;;;;;;;19.92;16.30;;;6.40;99.90;;;7.00;93.12;97928.47;5214461;28;20288;-62
2022/12/28 16:44:22;;;;;;;13.07;11.82;;;6.30;99.90;;;6.94;94.40;97922.97;5210835;28;20221;-63
2022/12/28 16:46:58;;;;;;;10.68;9.73;;;6.30;99.90;;;6.85;93.88;97917.22;5213145;28;20775;-63
2022/12/28 16:49:32;;;;;;;10.73;9.82;;;6.20;99.90;;;6.84;94.82;97912.91;5208939;28;20649;-63
2022/12/28 16:52:05;;;;;;;10.65;9.85;;;6.20;99.90;;;7.04;93.21;97919.41;5214288;28;20703;-64
2022/12/28 16:54:38;;;;;;;11.38;10.48;;;6.30;99.90;;;6.98;94.20;97899.53;5212367;22;20308;-65
2022/12/28 16:57:12;;;;;;;11.82;10.82;;;6.20;99.90;;;6.70;95.32;97886.53;5192798;28;20685;-64
2022/12/28 16:59:46;;;;;;;15.32;14.10;;;6.10;99.90;;;6.59;96.11;97895.03;5199898;28;20209;-63
2022/12/28 17:02:20;;;;;;;10.02;9.13;;;6.00;99.90;;;6.59;96.95;97888.28;5198065;28;20202;-65
2022/12/28 17:04:54;;;;;;;8.13;7.43;;;6.00;99.90;;;6.72;96.78;97883.31;5196886;28;20229;-64
2022/12/28 17:07:27;;;;;;;9.60;8.70;;;6.00;99.90;;;6.79;96.06;97891.38;5199487;28;20234;-65
2022/12/28 17:10:00;;;;;;;8.30;7.60;;;6.10;99.90;;;6.67;97.03;97886.31;5195042;28;20266;-65
2022/12/28 17:12:34;;;;;;;8.65;7.78;;;6.10;99.90;;;6.57;97.54;97888.94;5195946;28;20210;-65
2022/12/28 17:15:08;;;;;;;7.55;6.97;;;6.00;99.90;;;6.54;98.47;97885.41;5200336;28;20342;-65
2022/12/28 17:17:42;;;;;;;8.25;7.55;;;6.00;99.90;;;6.81;95.37;97885.66;5200201;28;20209;-64
2022/12/28 17:20:15;;;;;;;8.15;7.45;;;6.10;99.90;;;6.65;96.61;97882.75;5199743;28;20652;-64
2022/12/28 17:22:48;;;;;;;8.23;7.50;;;6.00;99.90;;;6.62;96.86;97880.88;5201614;28;20646;-65
2022/12/28 17:25:21;;;;;;;8.00;7.30;;;6.00;99.90;;;6.43;97.34;97886.25;5201577;28;20201;-64
2022/12/28 17:27:55;;;;;;;8.30;7.50;;;5.90;99.90;;;6.48;98.03;97884.06;5202470;28;20252;-65
2022/12/28 17:30:29;;;;;;;9.00;8.15;;;5.90;99.90;;;6.43;98.27;97877.78;5198629;28;20248;-63
2022/12/28 17:33:02;;;;;;;8.20;7.40;;;5.80;99.90;;;6.43;98.18;97881.19;5197429;28;20307;-66
2022/12/28 17:35:35;;;;;;;11.38;10.43;;;5.80;99.90;;;6.56;96.71;97877.03;5202158;28;20309;-63
2022/12/28 17:38:08;;;;;;;12.00;10.90;;;5.90;99.90;;;6.51;96.87;97880.09;5198497;28;20221;-63
2022/12/28 17:40:42;;;;;;;12.85;11.65;;;5.90;99.90;;;6.38;97.71;97874.00;5199161;28;20210;-65
2022/12/28 17:43:16;;;;;;;10.60;9.70;;;5.80;99.90;;;6.36;96.66;97883.19;5195248;28;20693;-63
2022/12/28 17:45:49;;;;;;;18.58;16.80;;;5.90;99.90;;;6.34;96.52;97865.28;5199599;28;20624;-64
2022/12/28 17:48:26;;;;;;;17.73;15.95;;;5.80;99.90;;;6.61;96.25;97876.59;5200928;28;20217;-65
2022/12/28 17:50:59;;;;;;;18.60;16.83;;;5.90;99.90;;;6.42;96.62;97876.00;5197549;28;20292;-65
2022/12/28 17:53:34;;;;;;;17.30;15.75;;;5.80;99.90;;;6.34;97.35;97879.66;5196209;28;20328;-65
2022/12/28 17:56:11;;;;;;;17.88;16.15;;;5.70;99.90;;;6.21;98.96;97881.28;5200018;28;20316;-65
2022/12/28 17:58:46;;;;;;;17.00;15.48;;;5.60;99.90;;;6.12;99.90;97872.97;5197807;28;20198;-64
2022/12/28 18:01:20;;;;;;;16.10;14.57;;;5.50;99.90;;;6.01;99.65;97873.81;5199372;28;20194;-64
2022/12/28 18:03:54;;;;;;;16.52;14.95;;;5.50;99.90;;;6.06;100.00;97867.44;5197518;28;20230;-65
2022/12/28 18:06:27;;;;;;;15.60;13.40;;;5.40;99.90;;;6.07;100.00;97854.00;5197883;28;20197;-63
2022/12/28 18:09:00;;;;;;;12.87;11.57;;;5.50;99.90;;;6.01;99.75;97854.44;5200598;28;20226;-65
2022/12/28 18:11:33;;;;;;;53.28;33.58;;;5.50;99.90;;;6.07;99.97;97859.09;5203916;28;20202;-63
2022/12/28 18:14:11;;;;;;;49.92;35.70;;;5.60;99.90;;;6.07;98.62;97848.94;5193606;28;20279;-63
2022/12/28 18:16:44;;;;;;;14.30;12.90;;;5.60;99.90;;;6.17;97.11;97848.81;5204031;28;20295;-64
2022/12/28 18:19:17;;;;;;;11.97;10.77;;;5.70;99.90;;;6.13;95.47;97839.22;5200340;28;20213;-64
2022/12/28 18:21:51;;;;;;;10.75;9.85;;;5.70;99.90;;;6.20;96.31;97835.47;5197511;28;20291;-65
2022/12/28 18:24:24;;;;;;;16.63;15.02;;;5.80;99.90;;;6.15;95.19;97837.66;5201674;28;20222;-64
2022/12/28 18:26:57;;;;;;;11.93;10.93;;;5.70;99.90;;;6.22;93.13;97831.41;5196957;28;20201;-65
2022/12/28 18:29:31;;;;;;;16.30;14.82;;;5.80;99.90;;;6.40;93.27;97836.94;5199429;28;20243;-64
2022/12/28 18:32:05;;;;;;;16.60;15.07;;;6.00;99.90;;;6.40;93.25;97825.13;5196606;28;20661;-63
2022/12/28 18:34:38;;;;;;;14.07;12.77;;;5.90;99.90;;;6.43;94.15;97829.53;5199262;28;20320;-64
2022/12/28 18:37:11;;;;;;;12.10;10.90;;;5.90;99.90;;;6.32;94.59;97822.03;5199901;28;20205;-64
2022/12/28 18:39:44;;;;;;;11.10;10.10;;;5.80;99.90;;;6.39;95.15;97823.38;5197599;28;20252;-65
2022/12/28 18:42:18;;;;;;;14.30;11.60;;;5.80;99.90;;;6.42;94.10;97817.63;5200190;28;20259;-65
2022/12/28 18:44:52;;;;;;;8.18;7.57;;;5.90;99.90;;;6.33;93.58;97812.78;5194584;28;20230;-65
2022/12/28 18:47:25;;;;;;;8.98;8.13;;;5.80;99.90;;;6.32;94.27;97816.06;5198485;28;20284;-64
2022/12/28 18:49:59;;;;;;;8.65;7.90;;;5.80;99.90;;;6.30;94.79;97807.47;5206643;28;20224;-64
2022/12/28 18:52:34;;;;;;;9.15;8.45;;;5.80;99.90;;;6.24;93.96;97805.38;5196622;28;20210;-63
2022/12/28 18:55:09;;;;;;;7.70;7.10;;;5.80;99.90;;;6.25;93.57;97808.78;5199385;28;20251;-64
2022/12/28 18:57:42;;;;;;;9.32;8.63;;;5.70;99.90;;;6.29;95.17;97805.69;5196458;28;20280;-64
2022/12/28 19:00:18;;;;;;;19.02;14.82;;;5.70;99.90;;;6.14;96.15;97802.94;5192041;28;20206;-64
2022/12/28 19:02:51;;;;;;;15.88;13.32;;;5.60;99.90;;;5.97;96.72;97793.19;5193636;28;20648;-65
2022/12/28 19:05:24;;;;;;;12.13;10.90;;;5.50;99.90;;;5.96;97.47;97794.84;5195907;28;20202;-64
2022/12/28 19:07:58;;;;;;;11.02;9.60;;;5.40;99.90;;;5.79;98.20;97796.13;5196347;28;20924;-65
2022/12/28 19:10:31;;;;;;;8.60;7.90;;;5.30;99.90;;;5.78;98.76;97794.34;5197897;28;20245;-65
2022/12/28 19:13:04;;;;;;;8.02;7.35;;;5.20;99.90;;;5.68;98.38;97781.75;5198513;28;20252;-63
2022/12/28 19:15:38;;;;;;;8.15;7.45;;;5.20;99.90;;;5.69;98.77;97786.03;5194168;28;20230;-65
2022/12/28 19:18:11;;;;;;;8.07;7.47;;;5.20;99.90;;;5.77;98.73;97790.03;5195447;28;20252;-64
2022/12/28 19:20:45;;;;;;;9.23;8.38;;;5.20;99.90;;;5.79;98.17;97780.91;5193581;28;20210;-63
2022/12/28 19:23:18;;;;;;;8.13;7.40;;;5.10;99.90;;;5.59;99.44;97779.41;5194437;28;20954;-64
2022/12/28 19:25:53;;;;;;;9.02;8.32;;;5.00;99.90;;;5.54;100.00;97773.09;5198765;28;20230;-64
2022/12/28 19:28:26;;;;;;;10.00;9.20;;;5.00;99.90;;;5.50;100.00;97770.25;5194151;28;20300;-64
2022/12/28 19:31:01;;;;;;;8.20;7.67;;;4.90;99.90;;;5.46;100.00;97779.25;5192251;28;20637;-64
2022/12/28 19:33:37;;;;;;;8.10;7.40;;;4.90;99.90;;;5.48;100.00;97767.59;5197464;28;20639;-64
2022/12/28 19:36:11;;;;;;;7.80;7.10;;;4.90;99.90;;;5.44;100.00;97765.59;5196584;28;20756;-64
2022/12/28 19:38:44;;;;;;;7.13;6.40;;;4.90;99.90;;;5.33;100.00;97762.25;5193858;28;20207;-64
2022/12/28 19:41:17;;;;;;;7.90;7.13;;;4.80;99.90;;;5.35;100.00;97754.75;5192637;28;20233;-64
2022/12/28 19:43:51;;;;;;;8.33;7.73;;;4.80;99.90;;;5.36;100.00;97757.41;5195616;28;20276;-64
2022/12/28 19:46:29;;;;;;;9.30;8.40;;;4.80;99.90;;;5.27;100.00;97756.72;5198244;28;20202;-64
2022/12/28 19:49:04;;;;;;;8.43;7.73;;;4.70;99.90;;;5.24;100.00;97751.44;5196621;28;20279;-65
2022/12/28 19:51:37;;;;;;;7.70;7.10;;;4.60;99.90;;;5.15;100.00;97753.25;5192478;28;20203;-64
2022/12/28 19:54:12;;;;;;;9.33;8.43;;;4.50;99.90;;;5.21;100.00;97748.66;5192425;28;20770;-64
2022/12/28 19:56:45;;;;;;;10.10;9.10;;;4.50;99.90;;;5.11;100.00;97743.66;5192738;28;20286;-65
2022/12/28 19:59:18;;;;;;;10.03;9.13;;;4.50;99.90;;;5.02;100.00;97738.78;5195441;28;20642;-64
2022/12/28 20:01:52;;;;;;;8.17;7.57;;;4.30;99.90;;;4.95;100.00;97742.50;5192481;28;20299;-63
2022/12/28 20:04:25;;;;;;;8.50;7.90;;;4.30;99.90;;;4.92;100.00;97742.28;5189333;28;20224;-65
2022/12/28 20:06:59;;;;;;;7.63;7.03;;;4.20;99.90;;;4.66;100.00;97750.34;5195862;28;20298;-65
2022/12/28 20:09:32;;;;;;;8.33;7.63;;;4.10;99.90;;;4.63;100.00;97744.19;5197614;28;20291;-65
2022/12/28 20:12:05;;;;;;;9.50;8.50;;;4.10;99.90;;;4.64;100.00;97738.38;5192262;28;20549;-64
2022/12/28 20:14:39;;;;;;;10.60;8.83;;;4.00;99.90;;;4.59;100.00;97734.59;5198708;28;20229;-64
2022/12/28 20:17:13;;;;;;;12.47;9.53;;;4.00;99.90;;;4.63;100.00;97729.00;5198782;28;20635;-64
2022/12/28 20:19:46;;;;;;;10.97;9.23;;;4.10;99.90;;;4.72;100.00;97727.16;5192175;28;20240;-64
2022/12/28 20:22:19;;;;;;;15.07;13.20;;;4.10;99.90;;;4.79;100.00;97726.91;5195660;28;20263;-65
2022/12/28 20:24:52;;;;;;;11.67;10.27;;;4.20;99.90;;;4.79;100.00;97721.81;5197606;28;20226;-65
2022/12/28 20:27:29;;;;;;;9.20;8.40;;;4.20;99.90;;;4.91;100.00;97720.22;5194913;28;20259;-64
2022/12/28 20:30:02;;;;;;;10.87;9.77;;;4.20;99.90;;;4.74;100.00;97726.53;5202185;28;20210;-65
2022/12/28 20:32:36;;;;;;;11.43;10.37;;;4.10;99.90;;;4.63;100.00;97731.53;5197824;28;20591;-64
2022/12/28 20:35:16;;;;;;;10.33;9.53;;;4.00;99.90;;;4.61;100.00;97733.09;5196099;28;20206;-65
2022/12/28 20:37:50;;;;;;;12.87;11.83;;;3.90;99.90;;;4.54;100.00;97725.75;5200197;28;20222;-64
2022/12/28 20:40:23;;;;;;;12.23;11.10;;;3.80;99.90;;;4.46;100.00;97730.22;5197143;28;20301;-64
2022/12/28 20:45:46;;;;;;;9.23;8.43;;;3.70;99.90;;;4.26;100.00;97718.53;5195971;28;20288;-64
2022/12/28 20:48:28;;;;;;;11.07;10.07;;;3.50;99.90;;;4.16;100.00;97721.13;5194398;28;20209;-65
2022/12/28 20:51:03;;;;;;;7.93;7.30;;;3.50;99.90;;;4.09;100.00;97713.78;5191789;28;20205;-63
2022/12/28 20:53:36;;;;;;;8.27;7.57;;;3.40;99.90;;;4.11;100.00;97707.22;5196735;28;20272;-64
2022/12/28 20:56:10;;;;;;;5.93;5.43;;;3.40;99.90;;;4.37;100.00;97705.06;5197686;28;20293;-65
2022/12/28 20:58:43;;;;;;;4.70;4.37;;;3.60;99.90;;;4.10;100.00;97705.47;5195415;28;20224;-64
2022/12/28 21:01:17;;;;;;;5.07;4.67;;;3.50;99.90;;;4.06;100.00;97710.28;5193575;28;20299;-64
2022/12/28 21:03:52;;;;;;;5.83;5.33;;;3.50;99.90;;;4.08;100.00;97710.38;5198943;28;20233;-65
2022/12/28 21:06:25;;;;;;;6.70;6.10;;;3.50;99.90;;;4.09;100.00;97702.00;5195667;28;20237;-65
2022/12/28 21:08:58;;;;;;;7.57;6.97;;;3.50;99.90;;;4.20;100.00;97697.81;5198091;28;20233;-63
2022/12/28 21:11:32;;;;;;;10.30;9.30;;;3.50;99.90;;;4.03;100.00;97694.88;5196468;28;20266;-64
2022/12/28 21:14:05;;;;;;;9.97;9.07;;;3.50;99.90;;;3.96;100.00;97691.72;5196793;28;20316;-64
2022/12/28 21:16:38;;;;;;;9.67;8.77;;;3.40;99.90;;;3.92;100.00;97680.47;5196829;28;20228;-64
2022/12/28 21:19:13;;;;;;;10.57;9.67;;;3.40;99.90;;;3.99;100.00;97677.66;5195301;28;20201;-64
2022/12/28 21:21:48;;;;;;;8.93;8.23;;;3.40;99.90;;;3.95;100.00;97675.66;5195253;28;20216;-65
2022/12/28 21:24:21;;;;;;;7.43;6.83;;;3.40;99.90;;;3.91;100.00;97673.63;5192319;28;20232;-65
2022/12/28 21:26:54;;;;;;;7.93;7.07;;;3.40;99.90;;;3.90;100.00;97671.00;5195133;28;20329;-64
2022/12/28 21:29:29;;;;;;;13.97;12.30;;;3.40;99.90;;;3.82;100.00;97665.34;5195304;28;20260;-64
2022/12/28 21:32:03;;;;;;;10.60;9.53;;;3.40;99.90;;;3.95;100.00;97675.66;5195969;28;20743;-64
2022/12/28 21:34:37;;;;;;;6.80;6.20;;;3.50;99.90;;;3.99;100.00;97666.66;5204488;28;20237;-65
2022/12/28 21:40:04;;;;;;;6.30;5.70;;;3.50;99.90;;;4.07;100.00;97676.63;5203957;28;20297;-65
2022/12/28 21:42:37;;;;;;;7.00;6.50;;;3.50;99.90;;;4.12;100.00;97668.50;5198834;28;20210;-64
2022/12/28 21:45:11;;;;;;;6.90;6.33;;;3.50;99.90;;;4.21;100.00;97666.72;5203864;28;20223;-63
2022/12/28 21:47:44;;;;;;;6.43;5.97;;;3.50;99.90;;;4.07;100.00;97663.97;5197841;28;20259;-64
2022/12/28 21:50:19;;;;;;;6.53;6.03;;;3.40;99.90;;;3.79;100.00;97663.44;5197426;28;20202;-64
2022/12/28 21:52:52;;;;;;;6.43;6.03;;;3.30;99.90;;;3.81;100.00;97661.06;5193538;28;20230;-63
2022/12/28 21:58:21;;;;;;;6.50;6.00;;;3.30;99.90;;;3.78;100.00;97641.47;5184973;28;20321;-65
2022/12/28 22:06:51;;;;;;;7.60;6.87;;;3.40;99.90;;;3.87;100.00;97632.84;5202954;28;20576;-64
2022/12/28 22:12:34;;;;;;;6.63;6.13;;;3.30;99.90;;;3.84;100.00;97629.31;5199112;28;20218;-64
2022/12/28 22:18:03;;;;;;;6.83;6.30;;;3.30;99.90;;;3.91;100.00;97635.72;5200657;28;20288;-64
2022/12/28 22:20:37;;;;;;;8.73;7.27;;;3.30;99.90;;;3.91;100.00;97624.72;5201621;28;20197;-64
2022/12/28 22:23:13;;;;;;;8.07;7.33;;;3.30;99.90;;;3.79;100.00;97629.69;5199585;28;20214;-64
2022/12/28 22:25:48;;;;;;;10.00;9.07;;;3.30;99.90;;;3.94;100.00;97628.38;5200623;28;20244;-65
2022/12/28 22:28:21;;;;;;;20.23;18.17;;;3.40;99.90;;;3.98;100.00;97622.81;5199104;28;20279;-63
2022/12/28 22:30:54;;;;;;;19.47;17.43;;;3.40;99.90;;;3.96;100.00;97614.22;5200098;28;20260;-65
2022/12/28 22:33:27;;;;;;;17.50;15.60;;;3.40;99.90;;;4.00;100.00;97612.81;5200440;28;20724;-64
2022/12/28 22:36:09;;;;;;;12.87;11.43;;;3.40;99.90;;;3.99;100.00;97606.00;5195983;28;20827;-65
2022/12/28 22:38:44;;;;;;;11.07;9.93;;;3.40;99.90;;;3.96;100.00;97604.09;5195829;28;20663;-63
2022/12/28 22:41:17;;;;;;;10.13;9.23;;;3.40;99.90;;;3.95;100.00;97607.41;5196107;28;20225;-64
2022/12/28 22:43:50;;;;;;;13.17;11.20;;;3.50;99.90;;;4.00;100.00;97603.56;5201925;28;20261;-64
2022/12/28 22:46:23;;;;;;;10.17;9.07;;;3.50;99.90;;;4.09;100.00;97610.09;5198856;28;20293;-65
2022/12/28 22:48:57;;;;;;;10.80;9.80;;;3.50;99.90;;;4.10;100.00;97609.38;5198730;28;20293;-65
2022/12/28 22:51:30;;;;;;;8.83;8.03;;;3.60;99.90;;;4.28;100.00;97608.25;5201466;28;20230;-64
2022/12/28 22:54:04;;;;;;;14.27;9.70;;;3.70;99.90;;;4.46;100.00;97604.59;5201520;22;20313;-90
2022/12/28 22:56:38;;;;;;;9.60;8.70;;;3.70;99.90;;;4.37;100.00;97601.34;5182256;28;20264;-89
2022/12/28 22:59:11;;;;;;;8.73;7.93;;;3.60;99.90;;;4.33;100.00;97604.41;5181102;28;20230;-90
2022/12/28 23:01:48;;;;;;;8.30;7.53;;;3.60;99.90;;;4.24;100.00;97608.78;5177068;28;20322;-90
2022/12/28 23:04:21;;;;;;;8.07;7.33;;;3.60;99.90;;;4.25;100.00;97602.94;5182070;28;20218;-90
2022/12/28 23:06:55;;;;;;;10.07;8.27;;;3.60;99.90;;;4.12;100.00;97612.88;5181647;28;20218;-90
2022/12/28 23:09:37;;;;;;;9.30;8.20;;;3.60;99.90;;;4.21;100.00;97599.31;5177093;28;20202;-90
2022/12/28 23:12:10;;;;;;;10.13;9.00;;;3.60;99.90;;;4.14;100.00;97601.22;5175644;28;20226;-90
2022/12/28 23:17:36;;;;;;;10.13;9.13;;;3.60;99.90;;;4.24;100.00;97596.13;5181412;28;20273;-90
2022/12/28 23:28:46;;;;;;;9.23;8.43;;;3.70;99.90;;;4.32;100.00;97586.56;5176856;28;20286;-90